Time;durP1;ratioP1;P1;durP2;ratioP2;P2;SDS_P1;SDS_P2;PMS_P1;PMS_P2;Temp;Humidity;BMP_temperature;BMP_pressure;BME280_temperature;BME280_humidity;BME280_pressure;Samples;Min_cycle;Max_cycle;Signal;HPM_P1;HPM_P2
2022/03/26 00:00:42;;;;;;;;;;;7.20;99.90;;;;;;5071728;28;19916;-67
2022/03/26 00:03:08;;;;;;;;;;;7.20;99.90;;;;;;5072480;28;20322;-66
2022/03/26 00:05:34;;;;;;;;;;;7.20;99.90;;;;;;5076085;28;19920;-67
2022/03/26 00:07:59;;;;;;;;;;;7.20;99.90;;;;;;5076879;28;19920;-67
2022/03/26 00:10:25;;;;;;;;;;;7.10;99.90;;;;;;5079798;28;19932;-66
2022/03/26 00:12:52;;;;;;;;;;;7.20;99.90;;;;;;5072204;28;20007;-66
2022/03/26 00:15:18;;;;;;;;;;;7.20;99.90;;;;;;5073908;28;19946;-66
2022/03/26 00:17:44;;;;;;;;;;;7.10;99.90;;;;;;5072558;28;20015;-66
2022/03/26 00:20:10;;;;;;;;;;;7.10;99.90;;;;;;5073750;28;19975;-66
2022/03/26 00:22:35;;;;;;;;;;;7.20;99.90;;;;;;5073019;28;19956;-66
2022/03/26 00:25:01;;;;;;;;;;;7.10;99.90;;;;;;5072184;28;19924;-66
2022/03/26 00:27:26;;;;;;;;;;;7.10;99.90;;;;;;5072268;28;19923;-66
2022/03/26 00:29:52;;;;;;;;;;;7.10;99.90;;;;;;5059650;28;19916;-66
2022/03/26 00:32:17;;;;;;;;;;;7.10;99.90;;;;;;5093296;28;19972;-66
2022/03/26 00:34:43;;;;;;;;;;;7.10;99.90;;;;;;5098324;28;20004;-66
2022/03/26 00:37:09;;;;;;;;;;;7.00;99.90;;;;;;5073928;28;19959;-67
2022/03/26 00:39:34;;;;;;;;;;;7.00;99.90;;;;;;5070925;28;19916;-68
2022/03/26 00:42:00;;;;;;;;;;;7.00;99.90;;;;;;5087510;28;19916;-68
2022/03/26 00:44:25;;;;;;;;;;;6.90;99.90;;;;;;5093569;28;19920;-67
2022/03/26 00:46:51;;;;;;;;;;;6.90;99.90;;;;;;5092009;28;19920;-68
2022/03/26 00:49:17;;;;;;;;;;;6.90;99.90;;;;;;5093235;28;19915;-66
2022/03/26 00:51:43;;;;;;;;;;;6.80;99.90;;;;;;5092575;28;19915;-67
2022/03/26 00:54:08;;;;;;;;;;;6.90;99.90;;;;;;5093068;28;19934;-66
2022/03/26 00:56:34;;;;;;;;;;;6.80;99.90;;;;;;5093184;28;19927;-67
2022/03/26 00:59:00;;;;;;;;;;;6.90;99.90;;;;;;5093029;28;20387;-67
2022/03/26 01:01:25;;;;;;;;;;;6.80;99.90;;;;;;5093193;28;19916;-67
2022/03/26 01:03:51;;;;;;;;;;;6.80;99.90;;;;;;5091245;28;20353;-68
2022/03/26 01:06:18;;;;;;;;;;;6.80;99.90;;;;;;5092948;28;19923;-68
2022/03/26 01:08:44;;;;;;;;;;;6.70;99.90;;;;;;5092939;28;19916;-67
2022/03/26 01:11:10;;;;;;;;;;;6.70;99.90;;;;;;5092292;28;20397;-68
2022/03/26 01:13:36;;;;;;;;;;;6.70;99.90;;;;;;5092265;28;20248;-67
2022/03/26 01:16:02;;;;;;;;;;;6.60;99.90;;;;;;5093500;28;19997;-68
2022/03/26 01:18:28;;;;;;;;;;;6.60;99.90;;;;;;5093314;28;19916;-67
2022/03/26 01:20:53;;;;;;;;;;;6.50;99.90;;;;;;5096364;28;19920;-68
2022/03/26 01:23:20;;;;;;;;;;;6.50;99.90;;;;;;5093869;28;19920;-66
2022/03/26 01:25:46;;;;;;;;;;;6.50;99.90;;;;;;5091661;28;20390;-68
2022/03/26 01:28:11;;;;;;;;;;;6.50;99.90;;;;;;5093084;28;19916;-67
2022/03/26 01:30:37;;;;;;;;;;;6.40;99.90;;;;;;5091552;28;19922;-67
2022/03/26 01:33:02;;;;;;;;;;;6.50;99.90;;;;;;5091824;28;19963;-68
2022/03/26 01:35:28;;;;;;;;;;;6.40;99.90;;;;;;5091337;28;19931;-68
2022/03/26 01:37:53;;;;;;;;;;;6.40;99.90;;;;;;5091155;28;19916;-67
2022/03/26 01:40:19;;;;;;;;;;;6.40;99.90;;;;;;5092539;28;19920;-67
2022/03/26 01:42:44;;;;;;;;;;;6.40;99.90;;;;;;5091493;28;19916;-67
2022/03/26 01:45:11;;;;;;;;;;;6.30;99.90;;;;;;5092546;28;19923;-67
2022/03/26 01:47:36;;;;;;;;;;;6.30;99.90;;;;;;5092669;28;19916;-67
2022/03/26 01:50:02;;;;;;;;;;;6.30;99.90;;;;;;5092133;28;19984;-67
2022/03/26 01:52:28;;;;;;;;;;;6.40;99.90;;;;;;5091615;28;19927;-68
2022/03/26 01:54:53;;;;;;;;;;;6.30;99.90;;;;;;5086125;28;19908;-67
2022/03/26 01:57:19;;;;;;;;;;;6.30;99.90;;;;;;5115711;28;19908;-66
2022/03/26 01:59:44;;;;;;;;;;;6.20;99.90;;;;;;5103678;28;19920;-68
2022/03/26 02:02:10;;;;;;;;;;;6.20;99.90;;;;;;5092126;28;19916;-67
2022/03/26 02:04:35;;;;;;;;;;;6.20;99.90;;;;;;5092463;28;19951;-66
2022/03/26 02:07:02;;;;;;;;;;;6.20;99.90;;;;;;5092787;28;19916;-67
2022/03/26 02:09:33;;;;;;;;;;;6.20;99.90;;;;;;5092232;28;20301;-67
2022/03/26 02:11:59;;;;;;;;;;;6.10;99.90;;;;;;5091100;28;19920;-67
2022/03/26 02:14:24;;;;;;;;;;;6.10;99.90;;;;;;5090829;28;19916;-67
2022/03/26 02:16:50;;;;;;;;;;;6.10;99.90;;;;;;5092249;28;19916;-68
2022/03/26 02:19:16;;;;;;;;;;;6.10;99.90;;;;;;5091699;28;19969;-68
2022/03/26 02:21:41;;;;;;;;;;;6.10;99.90;;;;;;5089436;28;20370;-68
2022/03/26 02:24:08;;;;;;;;;;;6.10;99.90;;;;;;5091150;28;19946;-67
2022/03/26 02:26:34;;;;;;;;;;;6.10;99.90;;;;;;5091346;28;19926;-67
2022/03/26 02:29:04;;;;;;;;;;;6.00;99.90;;;;;;5091171;28;19923;-67
2022/03/26 02:31:30;;;;;;;;;;;5.90;99.90;;;;;;5094175;28;19916;-67
2022/03/26 02:33:55;;;;;;;;;;;5.90;99.90;;;;;;5093895;28;20014;-67
2022/03/26 02:36:20;;;;;;;;;;;5.90;99.90;;;;;;5091298;28;19953;-67
2022/03/26 02:38:46;;;;;;;;;;;5.90;99.90;;;;;;5089510;28;19922;-67
2022/03/26 02:41:11;;;;;;;;;;;5.90;99.90;;;;;;5090114;28;20265;-66
2022/03/26 02:43:37;;;;;;;;;;;5.90;99.90;;;;;;5089161;28;19951;-66
2022/03/26 02:46:03;;;;;;;;;;;5.90;99.90;;;;;;5091202;28;20014;-66
2022/03/26 02:48:29;;;;;;;;;;;5.80;99.90;;;;;;5089962;28;19927;-67
2022/03/26 02:50:54;;;;;;;;;;;5.80;99.90;;;;;;5073031;28;19915;-66
2022/03/26 02:53:20;;;;;;;;;;;5.80;99.90;;;;;;5090162;28;19931;-67
2022/03/26 02:55:45;;;;;;;;;;;5.70;99.90;;;;;;5091144;28;20330;-67
2022/03/26 02:58:11;;;;;;;;;;;5.70;99.90;;;;;;5091226;28;19916;-66
2022/03/26 03:00:37;;;;;;;;;;;5.70;99.90;;;;;;5091125;28;19916;-66
2022/03/26 03:03:04;;;;;;;;;;;5.70;99.90;;;;;;5090280;28;20381;-66
2022/03/26 03:05:29;;;;;;;;;;;5.70;99.90;;;;;;5091373;28;19924;-67
2022/03/26 03:07:55;;;;;;;;;;;5.60;99.90;;;;;;5091003;28;19916;-66
2022/03/26 03:10:20;;;;;;;;;;;5.60;99.90;;;;;;5089740;28;20446;-67
2022/03/26 03:12:46;;;;;;;;;;;5.60;99.90;;;;;;5090184;28;19971;-67
2022/03/26 03:15:12;;;;;;;;;;;5.50;99.90;;;;;;5090129;28;19915;-66
2022/03/26 03:17:39;;;;;;;;;;;5.50;99.90;;;;;;5102446;28;19912;-65
2022/03/26 03:20:05;;;;;;;;;;;5.50;99.90;;;;;;5115732;28;19924;-65
2022/03/26 03:22:32;;;;;;;;;;;5.50;99.90;;;;;;5099280;28;19920;-66
2022/03/26 03:24:57;;;;;;;;;;;5.50;99.90;;;;;;5090971;28;20096;-66
2022/03/26 03:27:23;;;;;;;;;;;5.50;99.90;;;;;;5093477;28;19924;-67
2022/03/26 03:29:49;;;;;;;;;;;5.50;99.90;;;;;;5093192;28;19924;-67
2022/03/26 03:32:14;;;;;;;;;;;5.50;99.90;;;;;;5090337;28;20014;-66
2022/03/26 03:34:40;;;;;;;;;;;5.40;99.90;;;;;;5089613;28;20007;-67
2022/03/26 03:37:06;;;;;;;;;;;5.40;99.90;;;;;;5089733;28;19969;-66
2022/03/26 03:39:31;;;;;;;;;;;5.30;99.90;;;;;;5089841;28;19916;-66
2022/03/26 03:41:57;;;;;;;;;;;5.30;99.90;;;;;;5074709;28;19927;-68
2022/03/26 03:44:22;;;;;;;;;;;5.30;99.90;;;;;;5095766;28;19927;-68
2022/03/26 03:46:48;;;;;;;;;;;5.30;99.90;;;;;;5090199;28;19984;-68
2022/03/26 03:49:13;;;;;;;;;;;5.30;99.90;;;;;;5090688;28;19995;-68
2022/03/26 03:51:39;;;;;;;;;;;5.30;99.90;;;;;;5090176;28;19919;-68
2022/03/26 03:54:05;;;;;;;;;;;5.30;99.90;;;;;;5090395;28;20384;-68
2022/03/26 03:56:30;;;;;;;;;;;5.30;99.90;;;;;;5089376;28;19924;-68
2022/03/26 03:58:56;;;;;;;;;;;5.20;99.90;;;;;;5090738;28;19916;-68
2022/03/26 04:01:22;;;;;;;;;;;5.20;99.90;;;;;;5090632;28;19969;-67
2022/03/26 04:03:47;;;;;;;;;;;5.20;99.90;;;;;;5089701;28;20038;-66
2022/03/26 04:06:13;;;;;;;;;;;5.20;99.90;;;;;;5089129;28;19920;-66
2022/03/26 04:08:38;;;;;;;;;;;5.20;99.90;;;;;;5090334;28;19924;-66
2022/03/26 04:11:04;;;;;;;;;;;5.20;99.90;;;;;;5090480;28;19916;-67
2022/03/26 04:13:29;;;;;;;;;;;5.20;99.90;;;;;;5088194;28;19924;-67
2022/03/26 04:15:55;;;;;;;;;;;5.10;99.90;;;;;;5072111;28;20372;-67
2022/03/26 04:18:20;;;;;;;;;;;5.10;99.90;;;;;;5090391;28;19916;-66
2022/03/26 04:20:46;;;;;;;;;;;5.10;99.90;;;;;;5088918;28;19916;-67
2022/03/26 04:23:12;;;;;;;;;;;5.00;99.90;;;;;;5087973;28;19995;-67
2022/03/26 04:25:38;;;;;;;;;;;5.00;99.90;;;;;;5089144;28;19916;-67
2022/03/26 04:28:04;;;;;;;;;;;5.00;99.90;;;;;;5090297;28;19924;-67
2022/03/26 04:30:29;;;;;;;;;;;4.90;99.90;;;;;;5071838;28;19939;-67
2022/03/26 04:32:55;;;;;;;;;;;4.90;99.90;;;;;;5089158;28;20275;-67
2022/03/26 04:35:21;;;;;;;;;;;4.90;99.90;;;;;;5090071;28;20040;-69
2022/03/26 04:37:46;;;;;;;;;;;4.90;99.90;;;;;;5089935;28;19920;-66
2022/03/26 04:40:13;;;;;;;;;;;4.90;99.90;;;;;;5088222;28;19964;-67
2022/03/26 04:42:39;;;;;;;;;;;4.90;99.90;;;;;;5095336;28;19930;-66
2022/03/26 04:45:06;;;;;;;;;;;4.90;99.90;;;;;;5114884;28;19947;-67
2022/03/26 04:47:31;;;;;;;;;;;4.90;99.90;;;;;;5105894;28;20003;-68
2022/03/26 04:49:57;;;;;;;;;;;4.80;99.90;;;;;;5094130;28;20003;-68
2022/03/26 04:52:22;;;;;;;;;;;4.70;99.90;;;;;;5075045;28;20441;-69
2022/03/26 04:54:48;;;;;;;;;;;4.80;99.90;;;;;;5099160;28;20430;-69
2022/03/26 04:57:15;;;;;;;;;;;4.80;99.90;;;;;;5097108;28;19916;-66
2022/03/26 04:59:42;;;;;;;;;;;4.80;99.90;;;;;;5094013;28;20010;-66
2022/03/26 05:02:07;;;;;;;;;;;4.80;99.90;;;;;;5092673;28;19926;-66
2022/03/26 05:04:33;;;;;;;;;;;4.80;99.90;;;;;;5092260;28;19920;-66
2022/03/26 05:06:58;;;;;;;;;;;4.80;99.90;;;;;;5092407;28;20027;-66
2022/03/26 05:09:24;;;;;;;;;;;4.80;99.90;;;;;;5093359;28;19919;-66
2022/03/26 05:11:50;;;;;;;;;;;4.80;99.90;;;;;;5092610;28;19955;-66
2022/03/26 05:14:16;;;;;;;;;;;4.80;99.90;;;;;;5092857;28;20014;-66
2022/03/26 05:16:42;;;;;;;;;;;4.60;99.90;;;;;;5093377;28;19990;-66
2022/03/26 05:19:08;;;;;;;;;;;4.40;99.90;;;;;;5090669;28;19964;-66
2022/03/26 05:21:33;;;;;;;;;;;4.60;99.90;;;;;;5081927;28;19930;-67
2022/03/26 05:23:59;;;;;;;;;;;4.70;99.90;;;;;;5088496;28;20361;-66
2022/03/26 05:26:24;;;;;;;;;;;4.50;99.90;;;;;;5091064;28;19927;-66
2022/03/26 05:28:50;;;;;;;;;;;4.30;99.90;;;;;;5090930;28;19916;-66
2022/03/26 05:31:16;;;;;;;;;;;4.20;99.90;;;;;;5091258;28;20234;-67
2022/03/26 05:33:41;;;;;;;;;;;4.10;99.90;;;;;;5092070;28;19927;-66
2022/03/26 05:36:07;;;;;;;;;;;3.90;99.90;;;;;;5092618;28;20006;-67
2022/03/26 05:38:33;;;;;;;;;;;4.00;99.90;;;;;;5091334;28;19919;-66
2022/03/26 05:40:58;;;;;;;;;;;4.30;99.90;;;;;;5092671;28;19928;-66
2022/03/26 05:43:24;;;;;;;;;;;4.30;99.90;;;;;;5092075;28;19923;-66
2022/03/26 05:45:51;;;;;;;;;;;4.30;99.90;;;;;;5092758;28;20348;-66
2022/03/26 05:48:17;;;;;;;;;;;4.30;99.90;;;;;;5092560;28;19923;-66
2022/03/26 05:50:44;;;;;;;;;;;4.40;99.90;;;;;;5090908;28;20010;-67
2022/03/26 05:53:10;;;;;;;;;;;4.40;99.90;;;;;;5089944;28;20399;-67
2022/03/26 05:55:36;;;;;;;;;;;4.50;99.90;;;;;;5092251;28;19935;-66
2022/03/26 05:58:01;;;;;;;;;;;4.50;99.90;;;;;;5092411;28;19916;-67
2022/03/26 06:00:27;;;;;;;;;;;4.50;99.90;;;;;;5091448;28;19916;-67
2022/03/26 06:02:52;;;;;;;;;;;4.50;99.90;;;;;;5097826;28;19920;-66
2022/03/26 06:05:18;;;;;;;;;;;4.50;99.90;;;;;;5108113;28;19924;-66
2022/03/26 06:07:44;;;;;;;;;;;4.50;99.90;;;;;;5102956;28;19962;-67
2022/03/26 06:10:09;;;;;;;;;;;4.40;99.90;;;;;;5098525;28;20010;-68
2022/03/26 06:12:35;;;;;;;;;;;4.50;99.90;;;;;;5096701;28;19927;-66
2022/03/26 06:15:03;;;;;;;;;;;4.40;99.90;;;;;;5092906;28;19916;-66
2022/03/26 06:17:28;;;;;;;;;;;4.60;99.90;;;;;;5092103;28;19923;-66
2022/03/26 06:19:54;;;;;;;;;;;4.60;99.90;;;;;;5090442;28;19916;-67
2022/03/26 06:22:19;;;;;;;;;;;4.60;99.90;;;;;;5091310;28;20396;-66
2022/03/26 06:24:45;;;;;;;;;;;4.60;99.90;;;;;;5092026;28;20065;-67
2022/03/26 06:27:10;;;;;;;;;;;4.60;99.90;;;;;;5090359;28;19916;-68
2022/03/26 06:29:36;;;;;;;;;;;4.70;99.90;;;;;;5091779;28;19977;-67
2022/03/26 06:32:02;;;;;;;;;;;4.70;99.90;;;;;;5090891;28;19920;-68
2022/03/26 06:34:28;;;;;;;;;;;4.90;99.90;;;;;;5090353;28;19916;-67
2022/03/26 06:36:54;;;;;;;;;;;5.10;99.90;;;;;;5090326;28;19920;-67
2022/03/26 06:39:19;;;;;;;;;;;5.20;99.90;;;;;;5091885;28;19963;-67
2022/03/26 06:41:45;;;;;;;;;;;5.30;99.90;;;;;;5091030;28;20014;-66
2022/03/26 06:44:12;;;;;;;;;;;5.30;99.90;;;;;;5090234;28;20341;-68
2022/03/26 06:46:38;;;;;;;;;;;5.30;99.90;;;;;;5091582;28;19916;-67
2022/03/26 06:49:05;;;;;;;;;;;5.40;99.90;;;;;;5091298;28;20360;-68
2022/03/26 06:51:31;;;;;;;;;;;5.50;99.90;;;;;;5072911;28;20008;-67
2022/03/26 06:53:58;;;;;;;;;;;5.70;99.90;;;;;;5089531;28;19920;-68
2022/03/26 06:56:23;;;;;;;;;;;5.70;99.90;;;;;;5091593;28;20285;-67
2022/03/26 06:58:49;;;;;;;;;;;5.90;99.90;;;;;;5091206;28;19965;-68
2022/03/26 07:01:14;;;;;;;;;;;6.00;99.90;;;;;;5089902;28;19920;-68
2022/03/26 07:03:40;;;;;;;;;;;6.00;99.90;;;;;;5090373;28;19916;-68
2022/03/26 07:06:05;;;;;;;;;;;6.10;99.90;;;;;;5091252;28;19924;-68
2022/03/26 07:08:31;;;;;;;;;;;6.10;99.90;;;;;;5089244;28;19955;-68
2022/03/26 07:10:59;;;;;;;;;;;6.20;99.90;;;;;;5089643;28;19923;-68
2022/03/26 07:13:24;;;;;;;;;;;6.20;99.90;;;;;;5090200;28;19971;-68
2022/03/26 07:15:50;;;;;;;;;;;6.30;99.90;;;;;;5073304;28;19916;-68
2022/03/26 07:18:16;;;;;;;;;;;6.30;99.90;;;;;;5091753;28;19916;-68
2022/03/26 07:20:41;;;;;;;;;;;6.50;99.90;;;;;;5095231;28;19926;-69
2022/03/26 07:23:07;;;;;;;;;;;6.70;99.90;;;;;;5090747;28;20303;-68
2022/03/26 07:25:33;;;;;;;;;;;6.80;99.90;;;;;;5100567;28;20371;-67
2022/03/26 07:27:58;;;;;;;;;;;6.80;99.90;;;;;;5115337;28;19908;-67
2022/03/26 07:30:24;;;;;;;;;;;6.90;99.90;;;;;;5102435;28;19916;-67
2022/03/26 07:32:49;;;;;;;;;;;7.00;99.90;;;;;;5089144;28;20304;-69
2022/03/26 07:35:16;;;;;;;;;;;7.10;99.90;;;;;;5089384;28;20057;-68
2022/03/26 07:37:43;;;;;;;;;;;7.10;99.90;;;;;;5089752;28;19927;-68
2022/03/26 07:40:09;;;;;;;;;;;7.20;99.90;;;;;;5089347;28;19934;-68
2022/03/26 07:42:35;;;;;;;;;;;7.30;99.90;;;;;;5089617;28;19916;-68
2022/03/26 07:45:02;;;;;;;;;;;7.30;99.90;;;;;;5072715;28;19923;-67
2022/03/26 07:47:27;;;;;;;;;;;7.40;99.90;;;;;;5090677;28;19923;-68
2022/03/26 07:49:53;;;;;;;;;;;7.40;99.90;;;;;;5089450;28;19939;-68
2022/03/26 07:52:19;;;;;;;;;;;7.70;99.90;;;;;;5088295;28;19924;-67
2022/03/26 07:54:44;;;;;;;;;;;7.70;99.90;;;;;;5089480;28;19916;-68
2022/03/26 07:57:10;;;;;;;;;;;7.70;99.90;;;;;;5090513;28;19916;-68
2022/03/26 07:59:35;;;;;;;;;;;7.90;99.90;;;;;;5090522;28;19916;-67
2022/03/26 08:02:01;;;;;;;;;;;7.90;99.90;;;;;;5089706;28;19966;-67
2022/03/26 08:04:26;;;;;;;;;;;8.20;99.90;;;;;;5090404;28;19987;-68
2022/03/26 08:06:52;;;;;;;;;;;8.40;99.90;;;;;;5090786;28;19922;-68
2022/03/26 08:09:17;;;;;;;;;;;8.40;99.90;;;;;;5090178;28;19940;-68
2022/03/26 08:11:44;;;;;;;;;;;8.60;99.90;;;;;;5088089;28;19989;-67
2022/03/26 08:14:09;;;;;;;;;;;8.60;99.90;;;;;;5090355;28;19924;-68
2022/03/26 08:16:35;;;;;;;;;;;8.80;99.90;;;;;;5090189;28;20011;-68
2022/03/26 08:19:00;;;;;;;;;;;8.70;99.90;;;;;;5090633;28;19963;-68
2022/03/26 08:21:27;;;;;;;;;;;8.70;99.90;;;;;;5092993;28;19923;-68
2022/03/26 08:23:54;;;;;;;;;;;8.70;99.90;;;;;;5092254;28;19916;-68
2022/03/26 08:26:19;;;;;;;;;;;8.90;99.90;;;;;;5094199;28;19920;-68
2022/03/26 08:28:54;;;;;;;;;;;8.90;99.90;;;;;;5093262;28;19916;-69
2022/03/26 08:31:20;;;;;;;;;;;9.20;99.90;;;;;;5059709;28;20377;-68
2022/03/26 08:33:46;;;;;;;;;;;9.20;99.90;;;;;;5063071;28;19958;-71
2022/03/26 08:36:12;;;;;;;;;;;9.20;99.90;;;;;;5070678;28;19916;-69
2022/03/26 08:38:38;;;;;;;;;;;9.20;99.90;;;;;;5074327;28;19924;-69
2022/03/26 08:41:04;;;;;;;;;;;9.40;99.90;;;;;;5072748;28;19936;-70
2022/03/26 08:43:30;;;;;;;;;;;9.40;99.90;;;;;;5074778;28;20003;-70
2022/03/26 08:45:55;;;;;;;;;;;9.30;99.90;;;;;;5080550;28;19966;-70
2022/03/26 08:48:21;;;;;;;;;;;9.50;99.90;;;;;;5092565;28;19916;-70
2022/03/26 08:50:46;;;;;;;;;;;9.60;99.90;;;;;;5082792;28;19939;-70
2022/03/26 08:53:12;;;;;;;;;;;9.70;99.90;;;;;;5074314;28;20011;-70
2022/03/26 08:55:38;;;;;;;;;;;9.90;99.90;;;;;;5072837;28;19920;-70
2022/03/26 08:58:04;;;;;;;;;;;10.10;99.90;;;;;;5072663;28;19921;-70
2022/03/26 09:00:29;;;;;;;;;;;10.00;99.90;;;;;;5073802;28;19920;-70
2022/03/26 09:02:55;;;;;;;;;;;10.20;99.90;;;;;;5072794;28;20244;-70
2022/03/26 09:05:21;;;;;;;;;;;10.20;99.90;;;;;;5072415;28;20353;-70
2022/03/26 09:07:46;;;;;;;;;;;10.70;99.90;;;;;;5072007;28;19916;-70
2022/03/26 09:10:12;;;;;;;;;;;10.80;99.90;;;;;;5071799;28;19916;-70
2022/03/26 09:12:38;;;;;;;;;;;10.70;99.90;;;;;;5072017;28;19920;-68
2022/03/26 09:15:06;;;;;;;;;;;11.00;99.90;;;;;;5071320;28;19921;-68
2022/03/26 09:17:32;;;;;;;;;;;11.20;99.90;;;;;;5073017;28;19923;-68
2022/03/26 09:19:58;;;;;;;;;;;11.20;99.90;;;;;;5072926;28;20253;-68
2022/03/26 09:22:23;;;;;;;;;;;11.20;99.90;;;;;;5070837;28;19920;-68
2022/03/26 09:24:49;;;;;;;;;;;11.30;99.90;;;;;;5072696;28;19927;-68
2022/03/26 09:27:14;;;;;;;;;;;11.30;99.90;;;;;;5072907;28;19916;-67
2022/03/26 09:29:40;;;;;;;;;;;11.60;99.90;;;;;;5072451;28;19916;-69
2022/03/26 09:32:05;;;;;;;;;;;11.50;99.90;;;;;;5071451;28;20272;-69
2022/03/26 09:34:31;;;;;;;;;;;11.80;99.90;;;;;;5072707;28;19916;-69
2022/03/26 09:36:56;;;;;;;;;;;12.10;99.90;;;;;;5072828;28;19917;-69
2022/03/26 09:39:22;;;;;;;;;;;11.90;99.90;;;;;;5071672;28;19924;-69
2022/03/26 09:41:48;;;;;;;;;;;12.00;99.90;;;;;;5070028;28;19916;-70
2022/03/26 09:44:13;;;;;;;;;;;12.20;99.90;;;;;;5072247;28;19927;-69
2022/03/26 09:46:39;;;;;;;;;;;12.20;99.90;;;;;;5070851;28;20281;-68
2022/03/26 09:49:10;;;;;;;;;;;12.20;99.90;;;;;;5072607;28;19916;-74
2022/03/26 09:51:35;;;;;;;;;;;12.50;99.90;;;;;;5072524;28;19962;-73
2022/03/26 09:54:01;;;;;;;;;;;12.50;99.90;;;;;;5070997;28;19936;-70
2022/03/26 09:56:28;;;;;;;;;;;12.70;99.90;;;;;;5071331;28;19916;-74
2022/03/26 09:58:54;;;;;;;;;;;12.90;99.90;;;;;;5071733;28;19983;-75
2022/03/26 10:01:20;;;;;;;;;;;12.90;99.90;;;;;;5071771;28;20028;-72
2022/03/26 10:04:04;;;;;;;;;;;13.00;99.90;;;;;;5053810;28;19943;-72
2022/03/26 10:06:29;;;;;;;;;;;12.90;99.90;;;;;;5076888;28;19916;-72
2022/03/26 10:08:55;;;;;;;;;;;13.00;99.90;;;;;;5096529;28;19908;-73
2022/03/26 10:11:21;;;;;;;;;;;13.10;99.90;;;;;;5092431;28;19920;-72
2022/03/26 10:13:48;;;;;;;;;;;13.20;99.90;;;;;;5055230;28;19920;-72
2022/03/26 10:16:15;;;;;;;;;;;13.30;99.90;;;;;;5071623;28;20280;-72
2022/03/26 10:18:42;;;;;;;;;;;13.20;99.90;;;;;;5071142;28;19916;-72
2022/03/26 10:21:12;;;;;;;;;;;13.40;99.90;;;;;;5071063;28;19917;-72
2022/03/26 10:23:41;;;;;;;;;;;13.40;99.90;;;;;;5071319;28;19962;-72
2022/03/26 10:26:11;;;;;;;;;;;13.40;99.90;;;;;;5071402;28;19925;-73
2022/03/26 10:28:37;;;;;;;;;;;13.60;99.90;;;;;;5070481;28;19983;-72
2022/03/26 10:34:19;;;;;;;;;;;13.60;99.90;;;;;;5066768;28;19940;-73
2022/03/26 10:36:55;;;;;;;;;;;13.70;99.90;;;;;;5062600;28;19916;-72
2022/03/26 10:39:21;;;;;;;;;;;13.70;99.90;;;;;;5071756;28;20329;-72
2022/03/26 10:41:47;;;;;;;;;;;13.80;99.90;;;;;;5069891;28;20387;-72
2022/03/26 10:44:14;;;;;;;;;;;13.90;99.90;;;;;;5071121;28;19916;-72
2022/03/26 10:46:41;;;;;;;;;;;13.90;99.90;;;;;;5072446;28;19916;-72
2022/03/26 10:49:07;;;;;;;;;;;14.00;99.90;;;;;;5091140;28;19920;-72
2022/03/26 10:51:37;;;;;;;;;;;14.10;99.90;;;;;;5063885;28;19916;-72
2022/03/26 10:54:09;;;;;;;;;;;14.10;99.90;;;;;;5069914;28;19976;-74
2022/03/26 10:56:37;;;;;;;;;;;14.30;99.90;;;;;;5071137;28;19916;-72
2022/03/26 10:59:02;;;;;;;;;;;14.40;99.90;;;;;;5070243;28;19942;-73
2022/03/26 11:01:28;;;;;;;;;;;14.40;99.90;;;;;;5070002;28;20008;-73
2022/03/26 11:03:53;;;;;;;;;;;14.40;99.90;;;;;;5069324;28;20388;-73
2022/03/26 11:06:24;;;;;;;;;;;14.40;99.90;;;;;;5069730;28;19917;-72
2022/03/26 11:08:50;;;;;;;;;;;14.50;99.90;;;;;;5070386;28;20412;-73
2022/03/26 11:11:16;;;;;;;;;;;14.40;99.90;;;;;;5053743;28;20011;-74
2022/03/26 11:13:45;;;;;;;;;;;14.50;99.90;;;;;;5069212;28;19926;-73
2022/03/26 11:16:13;;;;;;;;;;;14.50;99.90;;;;;;5069959;28;19951;-74
2022/03/26 11:18:58;;;;;;;;;;;14.60;99.90;;;;;;5071380;28;20296;-72
2022/03/26 11:21:26;;;;;;;;;;;14.60;99.90;;;;;;5071048;28;19971;-73
2022/03/26 11:23:57;;;;;;;;;;;14.60;99.90;;;;;;5069448;28;19921;-74
2022/03/26 11:26:46;;;;;;;;;;;14.80;99.90;;;;;;5071460;28;19916;-74
2022/03/26 11:29:15;;;;;;;;;;;14.80;99.90;;;;;;5079893;28;19904;-73
2022/03/26 11:31:50;;;;;;;;;;;14.80;99.90;;;;;;5078211;28;19955;-73
2022/03/26 11:34:18;;;;;;;;;;;14.80;99.90;;;;;;5082384;28;19963;-74
2022/03/26 11:36:44;;;;;;;;;;;14.90;99.90;;;;;;5071447;28;20385;-74
2022/03/26 11:39:12;;;;;;;;;;;14.80;99.90;;;;;;5071291;28;19924;-74
2022/03/26 11:41:38;;;;;;;;;;;14.80;99.90;;;;;;5069467;28;19916;-72
2022/03/26 11:44:06;;;;;;;;;;;14.90;99.90;;;;;;5070364;28;20387;-72
2022/03/26 11:52:19;;;;;;;;;;;15.10;99.90;;;;;;5070393;28;19916;-73
2022/03/26 11:54:44;;;;;;;;;;;15.10;99.90;;;;;;5072195;28;19949;-75
2022/03/26 11:57:20;;;;;;;;;;;15.10;99.90;;;;;;5058380;28;20026;-74
2022/03/26 11:59:47;;;;;;;;;;;15.10;99.90;;;;;;5082923;28;19934;-74
2022/03/26 12:02:16;;;;;;;;;;;15.10;99.90;;;;;;5084757;28;19916;-75
2022/03/26 12:04:49;;;;;;;;;;;15.10;99.90;;;;;;5075325;28;19974;-74
2022/03/26 12:07:15;;;;;;;;;;;15.20;99.90;;;;;;5072952;28;20295;-71
2022/03/26 12:09:41;;;;;;;;;;;15.10;99.90;;;;;;5056429;28;19942;-71
2022/03/26 12:12:15;;;;;;;;;;;15.20;99.90;;;;;;5073668;28;19950;-71
2022/03/26 12:15:00;;;;;;;;;;;15.30;99.90;;;;;;5073052;28;20372;-71
2022/03/26 12:17:42;;;;;;;;;;;15.30;99.90;;;;;;5073028;28;19966;-70
2022/03/26 12:20:21;;;;;;;;;;;15.40;99.90;;;;;;5074614;28;19923;-70
2022/03/26 12:22:51;;;;;;;;;;;15.40;99.90;;;;;;5073731;28;20384;-70
2022/03/26 12:25:16;;;;;;;;;;;15.40;99.90;;;;;;5073297;28;19922;-71
2022/03/26 12:27:43;;;;;;;;;;;15.50;99.90;;;;;;5074633;28;19916;-71
2022/03/26 12:30:09;;;;;;;;;;;15.40;99.90;;;;;;5074626;28;20322;-71
2022/03/26 12:32:35;;;;;;;;;;;15.40;99.90;;;;;;5073420;28;19966;-72
2022/03/26 12:35:03;;;;;;;;;;;15.40;99.90;;;;;;5072673;28;19920;-71
2022/03/26 12:37:29;;;;;;;;;;;15.50;99.90;;;;;;5074142;28;19959;-71
2022/03/26 12:39:55;;;;;;;;;;;15.50;99.90;;;;;;5074311;28;20296;-70
2022/03/26 12:42:23;;;;;;;;;;;15.60;99.90;;;;;;5072992;28;19948;-70
2022/03/26 12:44:48;;;;;;;;;;;15.60;99.90;;;;;;5074999;28;20497;-70
2022/03/26 12:47:14;;;;;;;;;;;15.60;99.90;;;;;;5074939;28;19952;-70
2022/03/26 12:49:40;;;;;;;;;;;15.60;99.90;;;;;;5074629;28;19960;-70
2022/03/26 12:52:06;;;;;;;;;;;15.70;98.60;;;;;;5089641;28;19931;-71
2022/03/26 12:54:32;;;;;;;;;;;15.80;99.70;;;;;;5092830;28;19920;-70
2022/03/26 12:56:59;;;;;;;;;;;15.80;99.90;;;;;;5077166;28;19979;-71
2022/03/26 12:59:25;;;;;;;;;;;15.70;95.90;;;;;;5074207;28;20632;-71
2022/03/26 13:01:57;;;;;;;;;;;15.80;99.20;;;;;;5073265;28;19920;-71
2022/03/26 13:04:22;;;;;;;;;;;15.90;98.50;;;;;;5072965;28;20296;-70
2022/03/26 13:06:52;;;;;;;;;;;15.70;99.40;;;;;;5080190;28;19924;-71
2022/03/26 13:09:18;;;;;;;;;;;15.80;99.90;;;;;;5085954;28;20015;-72
2022/03/26 13:11:43;;;;;;;;;;;15.80;99.60;;;;;;5085146;28;19920;-71
2022/03/26 13:14:10;;;;;;;;;;;15.80;99.90;;;;;;5073972;28;19929;-71
2022/03/26 13:16:37;;;;;;;;;;;15.80;99.90;;;;;;5074501;28;19928;-72
2022/03/26 13:19:04;;;;;;;;;;;15.90;99.90;;;;;;5074088;28;19924;-71
2022/03/26 13:21:30;;;;;;;;;;;16.00;98.40;;;;;;5072993;28;19955;-72
2022/03/26 13:23:57;;;;;;;;;;;16.00;99.70;;;;;;5071680;28;19916;-72
2022/03/26 13:26:41;;;;;;;;;;;16.00;98.10;;;;;;5073877;28;19942;-71
2022/03/26 13:29:08;;;;;;;;;;;15.90;95.80;;;;;;5073696;28;20304;-71
2022/03/26 13:31:34;;;;;;;;;;;15.90;97.30;;;;;;5072874;28;20384;-71
2022/03/26 13:34:08;;;;;;;;;;;15.90;99.90;;;;;;5072673;28;19978;-71
2022/03/26 13:36:33;;;;;;;;;;;16.00;99.90;;;;;;5073429;28;19927;-71
2022/03/26 13:39:02;;;;;;;;;;;16.00;98.10;;;;;;5072182;28;19919;-72
2022/03/26 13:41:27;;;;;;;;;;;16.00;96.40;;;;;;5072115;28;19930;-71
2022/03/26 13:43:53;;;;;;;;;;;16.00;98.00;;;;;;5072340;28;19924;-72
2022/03/26 13:46:18;;;;;;;;;;;16.00;97.10;;;;;;5073107;28;19975;-68
2022/03/26 13:48:54;;;;;;;;;;;16.10;98.60;;;;;;5863766;22;20314;-70
2022/03/26 13:51:25;;;;;;;;;;;16.20;95.60;;;;;;5035478;28;19929;-68
2022/03/26 13:53:51;;;;;;;;;;;16.20;95.50;;;;;;5034490;28;19921;-70
2022/03/26 13:56:17;;;;;;;;;;;16.10;95.60;;;;;;5033160;28;20296;-71
2022/03/26 13:58:43;;;;;;;;;;;16.10;98.00;;;;;;5032981;28;19916;-71
2022/03/26 14:01:09;;;;;;;;;;;16.20;99.10;;;;;;5033173;28;19920;-71
2022/03/26 14:03:36;;;;;;;;;;;16.20;95.80;;;;;;5033164;28;19970;-71
2022/03/26 14:06:01;;;;;;;;;;;16.20;94.90;;;;;;5032638;28;19917;-70
2022/03/26 14:08:27;;;;;;;;;;;16.40;99.90;;;;;;5032276;28;19944;-70
2022/03/26 14:10:52;;;;;;;;;;;16.50;99.90;;;;;;5032711;28;19924;-70
2022/03/26 14:13:18;;;;;;;;;;;16.50;94.00;;;;;;5032889;28;19925;-70
2022/03/26 14:15:44;;;;;;;;;;;16.60;96.90;;;;;;5032912;28;19921;-69
2022/03/26 14:18:10;;;;;;;;;;;16.40;94.10;;;;;;5032505;28;20000;-69
2022/03/26 14:20:36;;;;;;;;;;;16.50;99.20;;;;;;5032290;28;19917;-70
2022/03/26 14:23:03;;;;;;;;;;;16.50;92.40;;;;;;5031619;28;20398;-69
2022/03/26 14:25:30;;;;;;;;;;;16.30;88.10;;;;;;5032443;28;20376;-68
2022/03/26 14:27:56;;;;;;;;;;;16.40;88.00;;;;;;5032587;28;20365;-69
2022/03/26 14:30:22;;;;;;;;;;;16.30;90.70;;;;;;5032225;28;19979;-69